Time;durP1;ratioP1;P1;durP2;ratioP2;P2;SDS_P1;SDS_P2;PMS_P1;PMS_P2;Temp;Humidity;BMP_temperature;BMP_pressure;BME280_temperature;BME280_humidity;BME280_pressure;Samples;Min_cycle;Max_cycle;Signal;HPM_P1;HPM_P2
2022/07/26 00:00:11;;;;;;;;;;;22.90;76.50;;;;;;2005657;28;19905;-74
2022/07/26 00:01:10;;;;;;;;;;;22.90;77.20;;;;;;2005704;28;19972;-74
2022/07/26 00:02:08;;;;;;;;;;;22.90;76.40;;;;;;2005727;28;19909;-73
2022/07/26 00:03:06;;;;;;;;;;;22.90;76.40;;;;;;2005775;28;19945;-73
2022/07/26 00:04:06;;;;;;;;;;;22.90;76.50;;;;;;2005530;28;20414;-73
2022/07/26 00:05:05;;;;;;;;;;;22.90;76.40;;;;;;2005447;28;20257;-73
2022/07/26 00:06:03;;;;;;;;;;;22.90;76.40;;;;;;2005768;28;19960;-74
2022/07/26 00:07:02;;;;;;;;;;;22.90;76.40;;;;;;2005621;28;20379;-74
2022/07/26 00:08:09;;;;;;;;;;;22.90;76.40;;;;;;2005683;28;19913;-73
2022/07/26 00:09:08;;;;;;;;;;;22.90;76.40;;;;;;1997964;28;19906;-73
2022/07/26 00:10:07;;;;;;;;;;;22.90;76.40;;;;;;1997078;28;19913;-74
2022/07/26 00:11:05;;;;;;;;;;;22.90;76.40;;;;;;2004928;28;20059;-74
2022/07/26 00:12:04;;;;;;;;;;;22.90;76.40;;;;;;2005692;28;19906;-73
2022/07/26 00:13:02;;;;;;;;;;;22.90;76.40;;;;;;2005460;28;19905;-74
2022/07/26 00:14:02;;;;;;;;;;;22.90;76.40;;;;;;2005571;28;19912;-74
2022/07/26 00:15:00;;;;;;;;;;;22.90;76.40;;;;;;2005417;28;19984;-74
2022/07/26 00:15:59;;;;;;;;;;;22.90;76.40;;;;;;2005508;28;19905;-74
2022/07/26 00:16:58;;;;;;;;;;;22.90;76.40;;;;;;2005532;28;20344;-74
2022/07/26 00:17:56;;;;;;;;;;;22.90;76.40;;;;;;2005590;28;19905;-74
2022/07/26 00:18:55;;;;;;;;;;;22.90;76.40;;;;;;2005396;28;20336;-74
2022/07/26 00:19:53;;;;;;;;;;;22.90;76.30;;;;;;2005463;28;19905;-73
2022/07/26 00:20:52;;;;;;;;;;;22.90;76.40;;;;;;2005269;28;19913;-75
2022/07/26 00:22:32;;;;;;;;;;;22.90;76.40;;;;;;2005384;28;19905;-74
2022/07/26 00:23:09;;;;;;;;;;;22.90;76.40;;;;;;2005156;28;19969;-74
2022/07/26 00:24:08;;;;;;;;;;;22.90;76.40;;;;;;2005372;28;19909;-74
2022/07/26 00:25:07;;;;;;;;;;;22.90;76.40;;;;;;2005232;28;20357;-73
2022/07/26 00:26:06;;;;;;;;;;;22.90;76.40;;;;;;2005299;28;19909;-74
2022/07/26 00:27:04;;;;;;;;;;;22.90;76.30;;;;;;2005416;28;20004;-72
2022/07/26 00:28:03;;;;;;;;;;;22.90;76.30;;;;;;2005177;28;19917;-72
2022/07/26 00:29:03;;;;;;;;;;;22.90;76.30;;;;;;2005410;28;20268;-73
2022/07/26 00:30:03;;;;;;;;;;;22.80;76.20;;;;;;2005221;28;19959;-73
2022/07/26 00:31:01;;;;;;;;;;;22.90;76.40;;;;;;2005240;28;19905;-72
2022/07/26 00:32:00;;;;;;;;;;;22.90;76.30;;;;;;2005245;28;20357;-74
2022/07/26 00:32:59;;;;;;;;;;;22.90;76.30;;;;;;2005318;28;19911;-73
2022/07/26 00:33:57;;;;;;;;;;;22.80;76.20;;;;;;2005301;28;19991;-74
2022/07/26 00:34:56;;;;;;;;;;;22.90;76.30;;;;;;2005310;28;20385;-73
2022/07/26 00:35:54;;;;;;;;;;;22.90;76.30;;;;;;2005299;28;19944;-73
2022/07/26 00:36:53;;;;;;;;;;;22.80;76.20;;;;;;2005270;28;20000;-73
2022/07/26 00:37:51;;;;;;;;;;;22.90;76.30;;;;;;2005296;28;19913;-73
2022/07/26 00:38:50;;;;;;;;;;;22.90;76.30;;;;;;2005246;28;20372;-73
2022/07/26 00:39:48;;;;;;;;;;;22.80;76.20;;;;;;2005271;28;20004;-73
2022/07/26 00:40:46;;;;;;;;;;;22.80;76.20;;;;;;2005384;28;19944;-72
2022/07/26 00:41:45;;;;;;;;;;;22.80;76.20;;;;;;2005315;28;20387;-73
2022/07/26 00:42:43;;;;;;;;;;;22.80;76.20;;;;;;2005246;28;19905;-73
2022/07/26 00:43:55;;;;;;;;;;;22.80;76.20;;;;;;2005267;28;19905;-75
2022/07/26 00:44:54;;;;;;;;;;;22.80;76.10;;;;;;2005014;28;19995;-73
2022/07/26 00:45:52;;;;;;;;;;;22.80;76.20;;;;;;2005200;28;19988;-75
2022/07/26 00:46:51;;;;;;;;;;;22.80;76.20;;;;;;2005140;28;19905;-75
2022/07/26 00:47:50;;;;;;;;;;;22.90;76.30;;;;;;2005099;28;19912;-72
2022/07/26 00:48:48;;;;;;;;;;;22.80;76.20;;;;;;2005223;28;19923;-74
2022/07/26 00:49:47;;;;;;;;;;;22.80;76.90;;;;;;2005109;28;19909;-75
2022/07/26 00:50:45;;;;;;;;;;;22.90;76.30;;;;;;2005216;28;19916;-75
2022/07/26 00:51:44;;;;;;;;;;;22.80;76.20;;;;;;2005244;28;19913;-74
2022/07/26 00:52:44;;;;;;;;;;;22.80;76.10;;;;;;2005127;28;19973;-75
2022/07/26 00:53:44;;;;;;;;;;;22.90;76.20;;;;;;2005112;28;20353;-71
2022/07/26 00:54:44;;;;;;;;;;;22.80;76.10;;;;;;2005899;28;19906;-71
2022/07/26 00:55:42;;;;;;;;;;;22.80;76.10;;;;;;2008764;28;19905;-72
2022/07/26 00:56:41;;;;;;;;;;;22.90;76.20;;;;;;2007446;28;19996;-75
2022/07/26 00:57:40;;;;;;;;;;;22.80;76.10;;;;;;2009180;28;19956;-73
2022/07/26 00:58:38;;;;;;;;;;;22.80;76.10;;;;;;2005351;28;19910;-73
2022/07/26 00:59:37;;;;;;;;;;;22.80;76.10;;;;;;2005468;28;20005;-73
2022/07/26 01:00:35;;;;;;;;;;;22.80;76.10;;;;;;2005090;28;19955;-74
2022/07/26 01:01:34;;;;;;;;;;;22.90;76.20;;;;;;2005137;28;20008;-73
2022/07/26 01:02:32;;;;;;;;;;;22.80;76.10;;;;;;2005196;28;19910;-73
2022/07/26 01:03:31;;;;;;;;;;;22.80;76.10;;;;;;2005197;28;20137;-73
2022/07/26 01:04:29;;;;;;;;;;;22.80;76.10;;;;;;2005335;28;19906;-73
2022/07/26 01:05:28;;;;;;;;;;;22.90;76.20;;;;;;2005075;28;19917;-74
2022/07/26 01:06:26;;;;;;;;;;;22.80;76.10;;;;;;2005114;28;19912;-73
2022/07/26 01:07:25;;;;;;;;;;;22.80;76.10;;;;;;2005053;28;19949;-73
2022/07/26 01:08:24;;;;;;;;;;;22.80;76.10;;;;;;2005127;28;19905;-74
2022/07/26 01:09:22;;;;;;;;;;;22.80;76.10;;;;;;2005066;28;19909;-73
2022/07/26 01:10:21;;;;;;;;;;;22.80;76.10;;;;;;2004994;28;19988;-73
2022/07/26 01:11:19;;;;;;;;;;;22.80;76.10;;;;;;2005086;28;19928;-74
2022/07/26 01:12:18;;;;;;;;;;;22.80;76.00;;;;;;2005015;28;20218;-73
2022/07/26 01:13:20;;;;;;;;;;;22.80;76.10;;;;;;2005055;28;19996;-74
2022/07/26 01:14:22;;;;;;;;;;;22.80;76.70;;;;;;2004980;28;19997;-72
2022/07/26 01:15:22;;;;;;;;;;;22.80;76.00;;;;;;2004933;28;20143;-74
2022/07/26 01:16:20;;;;;;;;;;;22.80;76.00;;;;;;2004881;28;19937;-73
2022/07/26 01:17:19;;;;;;;;;;;22.80;76.00;;;;;;2005319;28;19913;-72
2022/07/26 01:18:17;;;;;;;;;;;22.80;76.00;;;;;;2004977;28;19906;-73
2022/07/26 01:19:16;;;;;;;;;;;22.80;76.00;;;;;;2004898;28;20000;-73
2022/07/26 01:20:14;;;;;;;;;;;22.80;76.00;;;;;;2004987;28;19906;-72
2022/07/26 01:21:13;;;;;;;;;;;22.80;76.00;;;;;;2004885;28;20348;-72
2022/07/26 01:22:12;;;;;;;;;;;22.80;76.10;;;;;;2004912;28;19905;-72
2022/07/26 01:23:11;;;;;;;;;;;22.80;76.00;;;;;;2005017;28;20249;-73
2022/07/26 01:24:09;;;;;;;;;;;22.80;76.00;;;;;;2004989;28;20364;-72
2022/07/26 01:25:08;;;;;;;;;;;22.80;76.00;;;;;;2004886;28;20276;-73
2022/07/26 01:26:07;;;;;;;;;;;22.80;76.00;;;;;;2004859;28;19909;-72
2022/07/26 01:27:05;;;;;;;;;;;22.80;76.00;;;;;;2005011;28;20352;-74
2022/07/26 01:28:04;;;;;;;;;;;22.80;76.00;;;;;;2004778;28;20292;-73
2022/07/26 01:29:03;;;;;;;;;;;22.80;76.00;;;;;;2004966;28;19906;-73
2022/07/26 01:30:02;;;;;;;;;;;22.80;76.00;;;;;;2004998;28;19905;-73
2022/07/26 01:31:01;;;;;;;;;;;22.80;76.00;;;;;;2004982;28;19906;-72
2022/07/26 01:32:01;;;;;;;;;;;22.80;75.90;;;;;;2005078;28;19909;-73
2022/07/26 01:32:59;;;;;;;;;;;22.80;76.00;;;;;;2004880;28;20245;-74
2022/07/26 01:33:58;;;;;;;;;;;22.80;76.00;;;;;;2005083;28;19957;-73
2022/07/26 01:34:56;;;;;;;;;;;22.80;75.90;;;;;;2004869;28;19912;-74
2022/07/26 01:35:55;;;;;;;;;;;22.80;75.90;;;;;;2005125;28;20000;-73
2022/07/26 01:36:55;;;;;;;;;;;22.80;75.90;;;;;;2005006;28;20428;-72
2022/07/26 01:37:53;;;;;;;;;;;22.80;75.90;;;;;;2005051;28;20272;-73
2022/07/26 01:38:52;;;;;;;;;;;22.80;75.90;;;;;;2005027;28;19905;-72
2022/07/26 01:39:50;;;;;;;;;;;22.80;75.90;;;;;;2004868;28;19905;-73
2022/07/26 01:40:48;;;;;;;;;;;22.80;75.90;;;;;;2004875;28;19945;-74
2022/07/26 01:41:47;;;;;;;;;;;22.80;75.90;;;;;;2004943;28;19906;-74
2022/07/26 01:42:45;;;;;;;;;;;22.80;75.90;;;;;;2004849;28;20276;-73
2022/07/26 01:43:44;;;;;;;;;;;22.80;75.90;;;;;;2004914;28;19905;-73
2022/07/26 01:44:42;;;;;;;;;;;22.80;75.90;;;;;;2005001;28;20273;-72
2022/07/26 01:45:41;;;;;;;;;;;22.80;75.90;;;;;;2004906;28;20344;-73
2022/07/26 01:46:39;;;;;;;;;;;22.80;75.90;;;;;;2004971;28;19905;-75
2022/07/26 01:47:38;;;;;;;;;;;22.80;75.90;;;;;;2004940;28;20309;-73
2022/07/26 01:48:37;;;;;;;;;;;22.80;75.90;;;;;;2004906;28;20333;-73
2022/07/26 01:49:35;;;;;;;;;;;22.80;75.90;;;;;;2004942;28;20254;-73
2022/07/26 01:50:34;;;;;;;;;;;22.80;75.90;;;;;;2004859;28;20474;-73
2022/07/26 01:51:33;;;;;;;;;;;22.80;75.90;;;;;;2004924;28;19906;-73
2022/07/26 01:52:32;;;;;;;;;;;22.80;75.90;;;;;;2004872;28;19979;-73
2022/07/26 01:53:30;;;;;;;;;;;22.80;75.90;;;;;;2004857;28;19905;-74
2022/07/26 01:54:29;;;;;;;;;;;22.80;75.90;;;;;;2004857;28;19909;-73
2022/07/26 01:55:27;;;;;;;;;;;22.80;75.90;;;;;;2005112;28;19905;-73
2022/07/26 01:56:26;;;;;;;;;;;22.80;75.80;;;;;;2005410;28;20056;-74
2022/07/26 01:57:24;;;;;;;;;;;22.80;75.90;;;;;;2006456;28;19905;-73
2022/07/26 01:58:23;;;;;;;;;;;22.80;75.80;;;;;;2006559;28;19905;-73
2022/07/26 01:59:22;;;;;;;;;;;22.80;75.80;;;;;;1997929;28;19906;-73
2022/07/26 02:00:20;;;;;;;;;;;22.80;75.80;;;;;;1998199;28;19929;-74
2022/07/26 02:01:19;;;;;;;;;;;22.80;75.80;;;;;;2005839;28;19956;-73
2022/07/26 02:02:17;;;;;;;;;;;22.80;75.80;;;;;;2006440;28;19906;-73
2022/07/26 02:03:16;;;;;;;;;;;22.80;75.80;;;;;;2006615;28;19909;-72
2022/07/26 02:05:31;;;;;;;;;;;22.80;75.80;;;;;;2006391;28;20272;-75
2022/07/26 02:06:29;;;;;;;;;;;22.80;75.80;;;;;;2006386;28;19906;-72
2022/07/26 02:07:29;;;;;;;;;;;22.80;75.80;;;;;;2006419;28;20272;-73
2022/07/26 02:08:28;;;;;;;;;;;22.80;75.80;;;;;;2006438;28;19911;-73
2022/07/26 02:09:26;;;;;;;;;;;22.80;75.80;;;;;;2006368;28;20352;-72
2022/07/26 02:10:59;;;;;;;;;;;22.80;75.80;;;;;;2006354;28;19905;-75
2022/07/26 02:11:43;;;;;;;;;;;22.80;75.80;;;;;;2006169;28;19995;-73
2022/07/26 02:12:42;;;;;;;;;;;22.80;75.80;;;;;;2006362;28;19906;-72
2022/07/26 02:13:40;;;;;;;;;;;22.80;75.80;;;;;;2006336;28;19909;-73
2022/07/26 02:14:39;;;;;;;;;;;22.80;75.80;;;;;;2006472;28;19913;-72
2022/07/26 02:15:37;;;;;;;;;;;22.80;75.80;;;;;;2006351;28;20276;-75
2022/07/26 02:16:36;;;;;;;;;;;22.80;75.80;;;;;;2006558;28;19917;-73
2022/07/26 02:17:34;;;;;;;;;;;22.80;75.80;;;;;;2006252;28;20367;-72
2022/07/26 02:18:33;;;;;;;;;;;22.70;75.70;;;;;;2006515;28;19905;-72
2022/07/26 02:19:31;;;;;;;;;;;22.70;75.70;;;;;;2006471;28;19905;-73
2022/07/26 02:20:32;;;;;;;;;;;22.70;75.70;;;;;;2006529;28;19909;-73
2022/07/26 02:21:31;;;;;;;;;;;22.80;75.80;;;;;;2006366;28;19968;-73
2022/07/26 02:22:29;;;;;;;;;;;22.80;75.80;;;;;;2006321;28;19945;-74
2022/07/26 02:23:28;;;;;;;;;;;22.80;75.80;;;;;;2006533;28;19928;-72
2022/07/26 02:24:30;;;;;;;;;;;22.70;75.70;;;;;;2006598;28;19905;-73
2022/07/26 02:25:28;;;;;;;;;;;22.70;75.70;;;;;;2006613;28;19917;-73
2022/07/26 02:26:26;;;;;;;;;;;22.70;75.70;;;;;;1998104;28;20436;-73
2022/07/26 02:27:25;;;;;;;;;;;22.70;75.70;;;;;;1998155;28;19910;-72
2022/07/26 02:28:23;;;;;;;;;;;22.70;75.70;;;;;;2005689;28;20273;-73
2022/07/26 02:29:22;;;;;;;;;;;22.70;75.70;;;;;;2006299;28;20335;-74
2022/07/26 02:30:37;;;;;;;;;;;22.80;75.80;;;;;;1974630;29;20441;-73
2022/07/26 02:31:35;;;;;;;;;;;22.80;75.80;;;;;;1995777;28;20377;-73
2022/07/26 02:32:33;;;;;;;;;;;22.70;75.70;;;;;;2006186;28;19928;-73
2022/07/26 02:33:32;;;;;;;;;;;22.70;75.70;;;;;;2006110;28;20312;-73
2022/07/26 02:34:31;;;;;;;;;;;22.70;75.70;;;;;;2006242;28;19905;-73
2022/07/26 02:35:30;;;;;;;;;;;22.70;75.70;;;;;;2006207;28;19941;-73
2022/07/26 02:36:29;;;;;;;;;;;22.70;75.70;;;;;;2006185;28;19916;-73
2022/07/26 02:37:27;;;;;;;;;;;22.70;75.60;;;;;;2006119;28;20342;-74
2022/07/26 02:38:26;;;;;;;;;;;22.80;76.40;;;;;;2006152;28;20012;-73
2022/07/26 02:39:26;;;;;;;;;;;22.70;75.60;;;;;;2006298;28;19905;-74
2022/07/26 02:40:24;;;;;;;;;;;22.70;75.70;;;;;;2006182;28;20268;-73
2022/07/26 02:41:23;;;;;;;;;;;22.70;75.60;;;;;;2006229;28;19905;-73
2022/07/26 02:42:21;;;;;;;;;;;22.70;75.60;;;;;;2006288;28;19905;-73
2022/07/26 02:43:20;;;;;;;;;;;22.70;75.60;;;;;;2006093;28;19906;-73
2022/07/26 02:44:18;;;;;;;;;;;22.70;75.60;;;;;;2006120;28;19905;-73
2022/07/26 02:45:17;;;;;;;;;;;22.70;75.60;;;;;;2006029;28;20372;-73
2022/07/26 02:46:15;;;;;;;;;;;22.70;75.60;;;;;;2006274;28;19963;-73
2022/07/26 02:47:14;;;;;;;;;;;22.70;75.60;;;;;;2006052;28;20035;-74
2022/07/26 02:48:12;;;;;;;;;;;22.70;75.60;;;;;;2006140;28;20365;-73
2022/07/26 02:49:11;;;;;;;;;;;22.70;75.60;;;;;;2006063;28;19956;-73
2022/07/26 02:50:09;;;;;;;;;;;22.70;75.60;;;;;;2006058;28;19986;-74
2022/07/26 02:51:08;;;;;;;;;;;22.70;75.60;;;;;;2006080;28;20383;-72
2022/07/26 02:52:06;;;;;;;;;;;22.70;75.60;;;;;;2006175;28;19928;-74
2022/07/26 02:53:05;;;;;;;;;;;22.70;75.60;;;;;;2006025;28;19988;-73
2022/07/26 02:54:03;;;;;;;;;;;22.70;75.60;;;;;;2006074;28;19924;-73
2022/07/26 02:55:02;;;;;;;;;;;22.70;75.60;;;;;;2006000;28;19905;-73
2022/07/26 02:56:00;;;;;;;;;;;22.70;75.60;;;;;;2005988;28;19951;-73
2022/07/26 02:56:58;;;;;;;;;;;22.70;75.60;;;;;;2005987;28;19905;-74
2022/07/26 02:57:57;;;;;;;;;;;22.70;75.60;;;;;;2005987;28;19905;-74
2022/07/26 02:58:55;;;;;;;;;;;22.70;75.60;;;;;;2006096;28;19917;-73
2022/07/26 02:59:54;;;;;;;;;;;22.70;75.60;;;;;;2006054;28;19997;-74
2022/07/26 03:00:52;;;;;;;;;;;22.70;75.60;;;;;;2006210;28;19988;-73
2022/07/26 03:01:51;;;;;;;;;;;22.70;75.60;;;;;;2006000;28;19905;-73
2022/07/26 03:02:50;;;;;;;;;;;22.70;75.60;;;;;;2006016;28;19909;-72
2022/07/26 03:03:49;;;;;;;;;;;22.70;75.60;;;;;;2005993;28;19905;-73
2022/07/26 03:04:47;;;;;;;;;;;22.70;75.50;;;;;;2006084;28;20372;-76
2022/07/26 03:05:45;;;;;;;;;;;22.70;75.60;;;;;;2005931;28;19913;-73
2022/07/26 03:06:44;;;;;;;;;;;22.70;75.50;;;;;;2005876;28;19984;-73
2022/07/26 03:07:43;;;;;;;;;;;22.70;75.60;;;;;;2005843;28;19914;-74
2022/07/26 03:08:41;;;;;;;;;;;22.70;75.60;;;;;;2005945;28;20041;-75
2022/07/26 03:09:39;;;;;;;;;;;22.70;75.50;;;;;;2006018;28;19912;-72
2022/07/26 03:10:38;;;;;;;;;;;22.70;75.50;;;;;;2005989;28;19966;-73
2022/07/26 03:11:36;;;;;;;;;;;22.70;75.60;;;;;;2006076;28;19909;-72
2022/07/26 03:12:35;;;;;;;;;;;22.70;75.60;;;;;;2005953;28;19916;-75
2022/07/26 03:13:33;;;;;;;;;;;22.70;75.50;;;;;;2005922;28;19905;-75
2022/07/26 03:14:32;;;;;;;;;;;22.70;76.20;;;;;;2006076;28;19905;-73
2022/07/26 03:15:30;;;;;;;;;;;22.70;75.50;;;;;;2005891;28;19906;-74
2022/07/26 03:16:29;;;;;;;;;;;22.70;75.50;;;;;;2005872;28;20008;-72
2022/07/26 03:17:27;;;;;;;;;;;22.70;75.50;;;;;;2005904;28;19948;-76
2022/07/26 03:18:26;;;;;;;;;;;22.70;75.50;;;;;;2005904;28;19969;-75
2022/07/26 03:19:24;;;;;;;;;;;22.70;75.50;;;;;;2005922;28;19913;-73
2022/07/26 03:20:23;;;;;;;;;;;22.70;75.50;;;;;;2005917;28;19960;-74
2022/07/26 03:21:21;;;;;;;;;;;22.70;75.50;;;;;;2005792;28;19912;-74
2022/07/26 03:22:20;;;;;;;;;;;22.70;75.50;;;;;;2005887;28;19905;-74
2022/07/26 03:23:18;;;;;;;;;;;22.70;75.50;;;;;;2005923;28;19980;-75
2022/07/26 03:24:17;;;;;;;;;;;22.70;75.50;;;;;;2005911;28;20364;-75
2022/07/26 03:25:15;;;;;;;;;;;22.70;75.50;;;;;;2005758;28;19956;-75
2022/07/26 03:26:14;;;;;;;;;;;22.70;75.50;;;;;;2006086;28;19912;-73
2022/07/26 03:27:12;;;;;;;;;;;22.70;76.20;;;;;;2005792;28;19905;-73
2022/07/26 03:28:11;;;;;;;;;;;22.70;75.50;;;;;;2005683;28;19920;-75
2022/07/26 03:29:09;;;;;;;;;;;22.70;75.40;;;;;;2005908;28;19968;-74
2022/07/26 03:30:08;;;;;;;;;;;22.70;75.40;;;;;;2005788;28;19905;-75
2022/07/26 03:31:07;;;;;;;;;;;22.70;75.40;;;;;;2005710;28;19905;-73
2022/07/26 03:32:05;;;;;;;;;;;22.70;75.40;;;;;;2005767;28;20248;-73
2022/07/26 03:33:04;;;;;;;;;;;22.70;75.40;;;;;;2005759;28;19906;-73
2022/07/26 03:34:03;;;;;;;;;;;22.70;75.40;;;;;;2005694;28;19905;-73
2022/07/26 03:35:01;;;;;;;;;;;22.70;75.40;;;;;;2005699;28;19906;-74
2022/07/26 03:35:59;;;;;;;;;;;22.70;75.40;;;;;;2005879;28;19912;-73
2022/07/26 03:36:58;;;;;;;;;;;22.70;75.40;;;;;;2005563;28;19931;-74
2022/07/26 03:37:56;;;;;;;;;;;22.70;75.40;;;;;;2005662;28;19906;-74
2022/07/26 03:38:55;;;;;;;;;;;22.70;75.40;;;;;;2005747;28;19912;-76
2022/07/26 03:39:54;;;;;;;;;;;22.70;75.40;;;;;;2005733;28;19905;-75
2022/07/26 03:40:53;;;;;;;;;;;22.70;75.40;;;;;;2005810;28;19905;-74
2022/07/26 03:41:51;;;;;;;;;;;22.70;75.40;;;;;;2005828;28;20375;-74
2022/07/26 03:42:50;;;;;;;;;;;22.70;75.40;;;;;;2005797;28;20000;-75
2022/07/26 03:43:48;;;;;;;;;;;22.70;75.40;;;;;;2005848;28;19952;-74
2022/07/26 03:44:47;;;;;;;;;;;22.70;75.40;;;;;;2010067;28;19916;-71
2022/07/26 03:45:45;;;;;;;;;;;22.70;75.40;;;;;;2010967;28;19923;-73
2022/07/26 03:46:44;;;;;;;;;;;22.70;75.40;;;;;;2010061;28;19905;-73
2022/07/26 03:47:44;;;;;;;;;;;22.70;75.40;;;;;;2010923;28;19906;-75
2022/07/26 03:48:42;;;;;;;;;;;22.70;75.40;;;;;;2006843;28;19905;-74
2022/07/26 03:49:40;;;;;;;;;;;22.70;75.40;;;;;;2006886;28;19905;-74
2022/07/26 03:50:39;;;;;;;;;;;22.70;75.40;;;;;;2006277;28;19905;-73
2022/07/26 03:51:38;;;;;;;;;;;22.70;75.40;;;;;;2006134;28;19984;-73
2022/07/26 03:52:36;;;;;;;;;;;22.70;75.40;;;;;;2006072;28;19905;-73
2022/07/26 03:53:35;;;;;;;;;;;22.70;75.40;;;;;;2005873;28;20005;-73
2022/07/26 03:54:33;;;;;;;;;;;22.70;75.40;;;;;;2005771;28;20349;-73
2022/07/26 03:56:49;;;;;;;;;;;22.70;76.10;;;;;;2005812;28;20351;-74
2022/07/26 03:57:48;;;;;;;;;;;22.70;75.40;;;;;;2005846;28;19902;-73
2022/07/26 03:58:46;;;;;;;;;;;22.70;75.40;;;;;;2005717;28;20356;-73
2022/07/26 03:59:45;;;;;;;;;;;22.70;75.40;;;;;;2005686;28;20095;-73
2022/07/26 04:00:44;;;;;;;;;;;22.70;75.40;;;;;;2005780;28;19905;-74
2022/07/26 04:01:42;;;;;;;;;;;22.70;75.40;;;;;;2005772;28;20002;-73
2022/07/26 04:02:41;;;;;;;;;;;22.70;75.40;;;;;;2005638;28;19909;-73
2022/07/26 04:03:39;;;;;;;;;;;22.70;75.40;;;;;;2005579;28;19906;-74
2022/07/26 04:04:38;;;;;;;;;;;22.70;75.40;;;;;;2005765;28;20020;-74
2022/07/26 04:05:36;;;;;;;;;;;22.70;75.40;;;;;;2005582;28;20063;-75
2022/07/26 04:06:35;;;;;;;;;;;22.70;75.40;;;;;;2005554;28;20336;-73
2022/07/26 04:07:39;;;;;;;;;;;22.80;75.50;;;;;;2005473;28;19905;-73
2022/07/26 04:08:38;;;;;;;;;;;22.70;75.40;;;;;;2005541;28;19925;-73
2022/07/26 04:09:36;;;;;;;;;;;22.70;75.40;;;;;;2005581;28;19905;-74
2022/07/26 04:10:35;;;;;;;;;;;22.70;75.40;;;;;;2005479;28;20274;-74
2022/07/26 04:11:34;;;;;;;;;;;22.70;75.30;;;;;;1997319;28;19921;-74
2022/07/26 04:12:32;;;;;;;;;;;22.70;75.30;;;;;;1997291;28;19909;-75
2022/07/26 04:13:31;;;;;;;;;;;22.70;75.40;;;;;;2005193;28;19905;-73
2022/07/26 04:14:30;;;;;;;;;;;22.70;75.30;;;;;;2005671;28;19912;-73
2022/07/26 04:15:28;;;;;;;;;;;22.70;75.30;;;;;;2005432;28;19916;-73
2022/07/26 04:16:27;;;;;;;;;;;22.70;75.40;;;;;;2005576;28;19906;-75
2022/07/26 04:17:25;;;;;;;;;;;22.70;75.40;;;;;;2005403;28;20257;-72
2022/07/26 04:18:24;;;;;;;;;;;22.70;75.30;;;;;;2005478;28;19955;-73
2022/07/26 04:19:22;;;;;;;;;;;22.70;75.30;;;;;;2004926;28;20268;-74
2022/07/26 04:20:20;;;;;;;;;;;22.70;75.30;;;;;;2005627;28;20019;-75
2022/07/26 04:21:19;;;;;;;;;;;22.70;75.30;;;;;;2005529;28;20140;-73
2022/07/26 04:22:18;;;;;;;;;;;22.70;75.40;;;;;;2005327;28;19906;-75
2022/07/26 04:23:17;;;;;;;;;;;22.70;75.30;;;;;;2005526;28;19928;-75
2022/07/26 04:24:16;;;;;;;;;;;22.70;75.30;;;;;;2005439;28;19934;-73
2022/07/26 04:25:14;;;;;;;;;;;22.70;75.30;;;;;;2005309;28;20213;-74
2022/07/26 04:26:13;;;;;;;;;;;22.70;75.40;;;;;;2005378;28;20376;-75
2022/07/26 04:27:11;;;;;;;;;;;22.70;75.30;;;;;;2005559;28;20344;-75
2022/07/26 04:28:10;;;;;;;;;;;22.70;75.30;;;;;;2005296;28;20213;-75
2022/07/26 04:29:09;;;;;;;;;;;22.70;75.30;;;;;;2005341;28;19905;-74
2022/07/26 04:30:07;;;;;;;;;;;22.70;75.30;;;;;;2005609;28;19960;-73
2022/07/26 04:31:06;;;;;;;;;;;22.70;75.30;;;;;;2005316;28;20014;-74
2022/07/26 04:32:05;;;;;;;;;;;22.70;75.30;;;;;;2005566;28;19991;-74
2022/07/26 04:33:03;;;;;;;;;;;22.70;75.30;;;;;;2005303;28;19905;-74
2022/07/26 04:34:02;;;;;;;;;;;22.70;75.40;;;;;;2005264;28;19941;-75
2022/07/26 04:35:00;;;;;;;;;;;22.70;75.30;;;;;;2005458;28;19905;-73
2022/07/26 04:35:59;;;;;;;;;;;22.70;75.30;;;;;;2005419;28;20336;-72
2022/07/26 04:36:57;;;;;;;;;;;22.70;75.30;;;;;;2005349;28;19936;-72
2022/07/26 04:37:56;;;;;;;;;;;22.70;75.30;;;;;;2005266;28;19952;-74
2022/07/26 04:38:54;;;;;;;;;;;22.70;75.30;;;;;;2005431;28;19905;-73
2022/07/26 04:39:53;;;;;;;;;;;22.70;75.30;;;;;;2005323;28;19905;-73
2022/07/26 04:40:52;;;;;;;;;;;22.70;75.30;;;;;;2005505;28;19905;-73
2022/07/26 04:41:50;;;;;;;;;;;22.70;75.30;;;;;;2005257;28;20361;-73
2022/07/26 04:42:49;;;;;;;;;;;22.70;75.30;;;;;;2005220;28;20002;-73
2022/07/26 04:43:48;;;;;;;;;;;22.70;75.30;;;;;;2005391;28;19967;-73
2022/07/26 04:44:46;;;;;;;;;;;22.70;75.30;;;;;;2005346;28;20329;-73
2022/07/26 04:45:45;;;;;;;;;;;22.70;75.30;;;;;;2005073;28;19920;-73
2022/07/26 04:46:43;;;;;;;;;;;22.70;75.20;;;;;;2005463;28;19905;-72
2022/07/26 04:47:42;;;;;;;;;;;22.70;75.20;;;;;;2005359;28;19905;-76
2022/07/26 04:48:41;;;;;;;;;;;22.70;75.30;;;;;;2005233;28;19925;-75
2022/07/26 04:49:39;;;;;;;;;;;22.70;75.30;;;;;;2005251;28;20420;-76
2022/07/26 04:50:38;;;;;;;;;;;22.70;75.20;;;;;;2005244;28;20275;-73
2022/07/26 04:51:36;;;;;;;;;;;22.70;75.20;;;;;;2005315;28;19959;-74
2022/07/26 04:52:35;;;;;;;;;;;22.70;75.30;;;;;;2005398;28;19913;-73
2022/07/26 04:53:33;;;;;;;;;;;22.70;75.20;;;;;;1996754;28;20276;-74
2022/07/26 04:54:32;;;;;;;;;;;22.70;75.20;;;;;;1996720;28;19906;-74
2022/07/26 04:55:30;;;;;;;;;;;22.70;75.30;;;;;;2004812;28;20276;-73
2022/07/26 04:56:29;;;;;;;;;;;22.70;75.30;;;;;;2005289;28;19909;-75
2022/07/26 04:57:27;;;;;;;;;;;22.70;75.20;;;;;;2005138;28;19905;-74
2022/07/26 04:58:26;;;;;;;;;;;22.70;75.30;;;;;;2005207;28;19963;-72
2022/07/26 04:59:24;;;;;;;;;;;22.70;75.30;;;;;;2005261;28;19905;-75
2022/07/26 05:00:23;;;;;;;;;;;22.70;75.30;;;;;;2005230;28;19911;-73
2022/07/26 05:01:22;;;;;;;;;;;22.70;75.30;;;;;;2005254;28;20284;-73
2022/07/26 05:02:20;;;;;;;;;;;22.70;75.20;;;;;;2005583;28;19956;-73
2022/07/26 05:03:20;;;;;;;;;;;22.70;75.20;;;;;;1996822;28;20357;-74
2022/07/26 05:04:19;;;;;;;;;;;22.70;75.20;;;;;;1996927;28;20349;-74
2022/07/26 05:05:18;;;;;;;;;;;22.70;75.20;;;;;;2004807;28;19999;-74
2022/07/26 05:06:16;;;;;;;;;;;22.70;75.20;;;;;;2005239;28;19932;-74
2022/07/26 05:07:15;;;;;;;;;;;22.70;75.20;;;;;;2005196;28;19949;-73
2022/07/26 05:08:14;;;;;;;;;;;22.70;75.20;;;;;;2005133;28;19905;-74
2022/07/26 05:09:13;;;;;;;;;;;22.70;75.20;;;;;;2005253;28;19924;-74
2022/07/26 05:10:12;;;;;;;;;;;22.70;75.20;;;;;;2005127;28;19928;-73
2022/07/26 05:11:11;;;;;;;;;;;22.70;75.20;;;;;;2005269;28;19905;-74
2022/07/26 05:12:09;;;;;;;;;;;22.70;75.20;;;;;;2004978;28;19905;-73
2022/07/26 05:13:08;;;;;;;;;;;22.70;75.20;;;;;;2005415;28;19905;-75
2022/07/26 05:14:06;;;;;;;;;;;22.70;75.30;;;;;;2005237;28;19992;-75
2022/07/26 05:15:05;;;;;;;;;;;22.70;75.10;;;;;;2005110;28;19911;-76
2022/07/26 05:16:03;;;;;;;;;;;22.70;75.30;;;;;;2005134;28;19912;-76
2022/07/26 05:17:03;;;;;;;;;;;22.70;75.20;;;;;;1996471;28;19906;-73
2022/07/26 05:18:02;;;;;;;;;;;22.70;75.10;;;;;;1996840;28;20272;-73
2022/07/26 05:19:01;;;;;;;;;;;22.70;75.20;;;;;;2004842;28;19905;-73
2022/07/26 05:19:59;;;;;;;;;;;22.70;75.20;;;;;;2005092;28;19913;-75
2022/07/26 05:20:58;;;;;;;;;;;22.70;75.20;;;;;;2005001;28;19912;-73
2022/07/26 05:21:56;;;;;;;;;;;22.70;75.20;;;;;;2005105;28;19906;-73
2022/07/26 05:22:55;;;;;;;;;;;22.70;75.20;;;;;;2005120;28;20291;-75
2022/07/26 05:23:54;;;;;;;;;;;22.70;75.20;;;;;;2005008;28;19906;-74
2022/07/26 05:24:52;;;;;;;;;;;22.70;75.20;;;;;;2005028;28;19912;-74
2022/07/26 05:25:51;;;;;;;;;;;22.70;75.20;;;;;;2005131;28;19923;-74
2022/07/26 05:26:49;;;;;;;;;;;22.70;75.20;;;;;;2004942;28;20408;-75
2022/07/26 05:27:48;;;;;;;;;;;22.70;75.20;;;;;;2004885;28;19909;-74
2022/07/26 05:28:46;;;;;;;;;;;22.70;75.20;;;;;;2005204;28;19971;-75
2022/07/26 05:29:45;;;;;;;;;;;22.70;75.20;;;;;;2005053;28;19952;-74
2022/07/26 05:30:43;;;;;;;;;;;22.70;75.20;;;;;;2004432;28;20352;-73
2022/07/26 05:31:42;;;;;;;;;;;22.70;75.10;;;;;;2004531;28;20001;-73
2022/07/26 05:32:40;;;;;;;;;;;22.70;75.20;;;;;;2005072;28;19909;-74
2022/07/26 05:33:39;;;;;;;;;;;22.70;75.10;;;;;;2005069;28;20276;-73
2022/07/26 05:34:37;;;;;;;;;;;22.70;75.10;;;;;;2004988;28;19911;-75
2022/07/26 05:35:36;;;;;;;;;;;22.70;75.20;;;;;;2005079;28;19909;-73
2022/07/26 05:36:34;;;;;;;;;;;22.70;75.20;;;;;;2004952;28;19909;-74
2022/07/26 05:37:33;;;;;;;;;;;22.70;75.00;;;;;;2004903;28;20254;-73
2022/07/26 05:38:32;;;;;;;;;;;22.70;75.00;;;;;;2004891;28;20317;-74
2022/07/26 05:39:31;;;;;;;;;;;22.70;75.10;;;;;;2004977;28;20000;-75
2022/07/26 05:40:29;;;;;;;;;;;22.70;75.20;;;;;;2004835;28;19909;-73
2022/07/26 05:41:28;;;;;;;;;;;22.70;75.20;;;;;;2004938;28;19905;-74
2022/07/26 05:42:26;;;;;;;;;;;22.70;75.10;;;;;;2004871;28;19909;-76
2022/07/26 05:43:26;;;;;;;;;;;22.70;75.10;;;;;;2004899;28;19937;-76
2022/07/26 05:44:24;;;;;;;;;;;22.70;75.10;;;;;;2004935;28;19905;-75